createdAt,value
2018-07-21T00:01:36.115Z,95.30
2018-07-21T00:04:07.491Z,95.40
2018-07-21T00:06:38.683Z,95.50
2018-07-21T00:09:11.284Z,95.50
2018-07-21T00:11:44.177Z,95.60
2018-07-21T00:14:14.851Z,95.70
2018-07-21T00:16:58.871Z,95.70
2018-07-21T00:19:29.996Z,95.90
2018-07-21T00:22:01.707Z,96.00
2018-07-21T00:24:32.522Z,96.10
2018-07-21T00:27:05.495Z,96.20
2018-07-21T00:29:35.417Z,96.20
2018-07-21T00:36:18.048Z,96.40
2018-07-21T00:38:50.152Z,96.50
2018-07-21T00:41:21.352Z,96.50
2018-07-21T00:43:53.099Z,96.50
2018-07-21T00:46:25.206Z,96.60
2018-07-21T00:48:55.250Z,96.70
2018-07-21T00:51:26.714Z,96.70
2018-07-21T00:53:57.865Z,96.90
2018-07-21T00:56:30.075Z,96.90
2018-07-21T00:59:02.474Z,97.00
2018-07-21T01:01:33.914Z,97.10
2018-07-21T01:04:05.389Z,97.00
2018-07-21T01:06:37.248Z,97.10
2018-07-21T01:09:10.604Z,97.60
2018-07-21T01:11:41.670Z,97.30
2018-07-21T01:14:19.388Z,97.10
2018-07-21T01:16:51.256Z,97.40
2018-07-21T01:19:22.521Z,97.30
2018-07-21T01:24:27.990Z,97.80
2018-07-21T01:26:59.862Z,97.50
2018-07-21T01:29:30.211Z,97.40
2018-07-21T01:32:00.366Z,97.30
2018-07-21T01:34:32.053Z,97.20
2018-07-21T01:37:05.063Z,97.20
2018-07-21T01:39:35.589Z,97.10
2018-07-21T01:42:06.947Z,97.00
2018-07-21T01:44:55.745Z,96.90
2018-07-21T01:47:28.198Z,97.00
2018-07-21T01:50:01.664Z,96.90
2018-07-21T01:52:33.301Z,96.80
2018-07-21T01:55:03.971Z,96.80
2018-07-21T01:57:35.711Z,96.90
2018-07-21T02:00:07.535Z,96.90
2018-07-21T02:02:38.138Z,97.00
2018-07-21T02:05:10.194Z,97.00
2018-07-21T02:07:41.436Z,97.20
2018-07-21T02:10:11.092Z,97.30
2018-07-21T02:12:42.231Z,97.40
2018-07-21T02:15:13.958Z,97.40
2018-07-21T02:17:45.962Z,97.50
2018-07-21T02:20:16.016Z,97.50
2018-07-21T02:22:45.730Z,97.40
2018-07-21T02:25:32.647Z,97.50
2018-07-21T02:28:03.304Z,97.60
2018-07-21T02:30:34.713Z,97.50
2018-07-21T02:33:06.967Z,97.40
2018-07-21T02:35:38.009Z,97.40
2018-07-21T02:38:09.636Z,97.50
2018-07-21T02:40:40.132Z,97.50
2018-07-21T02:43:11.222Z,97.50
2018-07-21T02:45:43.882Z,97.40
2018-07-21T02:48:13.955Z,97.50
2018-07-21T02:50:44.705Z,97.40
2018-07-21T02:53:16.160Z,97.20
2018-07-21T02:55:47.748Z,96.90
2018-07-21T02:58:18.122Z,96.90
2018-07-21T03:00:49.874Z,96.90
2018-07-21T03:03:21.830Z,96.70
2018-07-21T03:06:03.500Z,96.80
2018-07-21T03:08:35.941Z,96.70
2018-07-21T03:11:07.578Z,96.50
2018-07-21T03:13:39.944Z,96.60
2018-07-21T03:16:12.774Z,96.50
2018-07-21T03:18:43.035Z,96.40
2018-07-21T03:21:14.577Z,96.30
2018-07-21T03:23:45.871Z,96.30
2018-07-21T03:26:18.157Z,96.20
2018-07-21T03:28:49.196Z,96.20
2018-07-21T03:31:19.493Z,96.20
2018-07-21T03:33:51.111Z,96.20
2018-07-21T03:36:21.485Z,96.30
2018-07-21T03:38:52.934Z,96.50
2018-07-21T03:41:24.208Z,96.90
2018-07-21T03:43:55.420Z,96.90
2018-07-21T03:46:31.866Z,96.90
2018-07-21T03:49:01.880Z,97.30
2018-07-21T03:51:32.880Z,96.80
2018-07-21T03:54:05.052Z,97.10
2018-07-21T03:56:36.070Z,97.00
2018-07-21T03:59:07.133Z,96.70
2018-07-21T04:01:37.806Z,96.90
2018-07-21T04:04:08.901Z,96.90
2018-07-21T04:06:38.779Z,97.00
2018-07-21T04:09:13.793Z,97.10
2018-07-21T04:11:48.005Z,97.10
2018-07-21T04:14:19.774Z,97.30
2018-07-21T04:16:50.919Z,97.70
2018-07-21T04:19:23.423Z,97.20
2018-07-21T04:21:55.496Z,97.50
2018-07-21T04:24:26.967Z,97.40
2018-07-21T04:27:02.507Z,97.00
2018-07-21T04:29:35.219Z,97.20
2018-07-21T04:32:06.374Z,97.60
2018-07-21T04:34:37.853Z,97.40
2018-07-21T04:37:08.739Z,97.10
2018-07-21T04:39:39.089Z,97.00
2018-07-21T04:42:11.470Z,97.20
2018-07-21T04:44:43.781Z,97.40
2018-07-21T04:47:21.787Z,97.20
2018-07-21T04:49:52.266Z,97.10
2018-07-21T04:52:22.375Z,97.30
2018-07-21T04:54:53.528Z,97.30
2018-07-21T04:57:24.996Z,97.50
2018-07-21T04:59:57.506Z,97.80
2018-07-21T05:02:29.748Z,97.90
2018-07-21T05:04:59.812Z,97.60
2018-07-21T05:07:48.367Z,97.90
2018-07-21T05:10:19.334Z,97.70
2018-07-21T05:12:50.504Z,97.40
2018-07-21T05:15:20.838Z,97.80
2018-07-21T05:17:50.776Z,97.90
2018-07-21T05:20:22.431Z,97.80
2018-07-21T05:22:52.989Z,98.30
2018-07-21T05:25:22.686Z,98.50
2018-07-21T05:27:53.839Z,98.40
2018-07-21T05:30:23.647Z,98.60
2018-07-21T05:32:54.493Z,98.20
2018-07-21T05:35:24.598Z,99.20
2018-07-21T05:37:55.454Z,98.70
2018-07-21T05:40:26.217Z,98.40
2018-07-21T05:42:58.107Z,98.70
2018-07-21T05:45:30.329Z,98.30
2018-07-21T05:48:00.429Z,98.40
2018-07-21T05:50:31.611Z,98.70
2018-07-21T05:53:01.708Z,98.40
2018-07-21T05:55:33.260Z,98.50
2018-07-21T05:58:04.304Z,98.10
2018-07-21T06:00:33.655Z,97.90
2018-07-21T06:03:03.795Z,97.80
2018-07-21T06:05:34.384Z,97.80
2018-07-21T06:08:05.502Z,97.70
2018-07-21T06:10:36.915Z,98.10
2018-07-21T06:13:10.238Z,97.90
2018-07-21T06:15:42.214Z,97.40
2018-07-21T06:18:15.150Z,96.90
2018-07-21T06:20:47.477Z,97.20
2018-07-21T06:23:19.003Z,97.20
2018-07-21T06:25:51.361Z,96.90
2018-07-21T06:28:27.165Z,97.20
2018-07-21T06:31:01.204Z,96.90
2018-07-21T06:33:33.129Z,96.20
2018-07-21T06:36:05.185Z,95.90
2018-07-21T06:38:36.796Z,95.60
2018-07-21T06:41:11.430Z,96.30
2018-07-21T06:43:43.967Z,95.90
2018-07-21T06:46:14.289Z,95.70
2018-07-21T06:48:47.720Z,95.60
2018-07-21T06:51:17.651Z,95.60
2018-07-21T06:53:49.498Z,95.30
2018-07-21T06:56:20.279Z,95.00
2018-07-21T06:58:52.347Z,95.10
2018-07-21T07:01:22.543Z,95.00
2018-07-21T07:03:54.154Z,94.20
2018-07-21T07:25:25.867Z,93.90
2018-07-21T07:30:37.386Z,93.30
2018-07-21T07:33:07.344Z,93.10
2018-07-21T07:35:43.094Z,93.50
2018-07-21T07:38:15.038Z,92.90
2018-07-21T09:17:53.706Z,84.20
2018-07-21T09:20:26.601Z,83.70
2018-07-21T09:22:57.320Z,84.10
2018-07-21T09:25:28.034Z,83.10
2018-07-21T09:28:00.132Z,82.40
2018-07-21T09:30:31.289Z,81.80
2018-07-21T09:33:01.546Z,80.70
2018-07-21T09:38:40.003Z,81.00
2018-07-21T09:41:12.237Z,80.20
2018-07-21T09:43:45.926Z,79.90
2018-07-21T09:46:16.504Z,81.00
2018-07-21T09:48:46.476Z,80.90
2018-07-21T10:03:30.238Z,76.10
2018-07-21T10:06:02.817Z,76.40
2018-07-21T10:08:34.986Z,76.40
2018-07-21T10:11:15.436Z,76.20
2018-07-21T10:37:44.290Z,71.40
2018-07-21T10:40:15.481Z,72.70
2018-07-21T10:42:46.701Z,73.80
2018-07-21T10:45:18.688Z,73.00
2018-07-21T10:50:54.794Z,74.50
2018-07-21T10:53:26.395Z,74.20
2018-07-21T10:55:57.129Z,74.10
2018-07-21T10:58:27.083Z,73.90
2018-07-21T11:00:57.509Z,73.20
2018-07-21T11:03:28.367Z,73.40
2018-07-21T11:06:00.683Z,73.80
2018-07-21T11:11:24.402Z,72.40
2018-07-21T11:20:02.589Z,70.10
2018-07-21T11:31:41.662Z,67.80
2018-07-21T11:34:12.640Z,67.70
2018-07-21T11:36:43.562Z,67.60
2018-07-21T11:39:15.173Z,67.10
2018-07-21T12:39:08.611Z,57.00
2018-07-21T13:05:55.432Z,57.90
2018-07-21T13:08:25.602Z,59.00
2018-07-21T13:16:46.763Z,58.90
2018-07-21T13:22:19.115Z,59.80
2018-07-21T13:24:49.767Z,60.20
2018-07-21T13:33:27.731Z,61.50
2018-07-21T13:36:15.251Z,61.40
2018-07-21T13:38:46.780Z,62.10
2018-07-21T13:41:18.531Z,62.10
2018-07-21T13:43:50.234Z,62.40
2018-07-21T13:46:22.541Z,62.10
2018-07-21T13:48:53.706Z,61.20
2018-07-21T13:51:26.244Z,60.50
2018-07-21T13:53:57.679Z,59.90
2018-07-21T13:56:28.592Z,59.00
2018-07-21T14:38:18.478Z,55.10
2018-07-21T14:43:52.624Z,55.70
2018-07-21T14:46:22.595Z,54.10
2018-07-21T15:22:18.398Z,54.50
2018-07-21T15:49:06.059Z,52.70
2018-07-21T16:09:49.775Z,56.40
2018-07-21T16:12:21.540Z,57.20
2018-07-21T17:31:15.178Z,58.30
2018-07-21T17:33:46.188Z,59.60
2018-07-21T17:36:17.400Z,60.90
2018-07-21T17:38:48.388Z,61.90
2018-07-21T17:41:18.551Z,62.60
2018-07-21T17:43:54.234Z,64.60
2018-07-21T17:46:24.753Z,64.90
2018-07-21T17:48:55.064Z,65.80
2018-07-21T17:51:27.300Z,66.70
2018-07-21T17:53:59.383Z,67.60
2018-07-21T17:56:31.913Z,68.10
2018-07-21T17:59:04.103Z,69.10
2018-07-21T18:01:36.234Z,69.80
2018-07-21T18:04:08.501Z,70.40
2018-07-21T18:06:41.433Z,71.40
2018-07-21T18:09:12.684Z,72.00
2018-07-21T18:11:43.557Z,72.80
2018-07-21T18:14:13.442Z,74.50
2018-07-21T18:16:44.321Z,74.40
2018-07-21T18:19:14.815Z,75.00
2018-07-21T18:21:46.360Z,76.30
2018-07-21T18:24:22.413Z,77.10
2018-07-21T18:26:54.063Z,77.70
2018-07-21T18:29:26.769Z,78.30
2018-07-21T18:31:59.045Z,79.20
2018-07-21T18:34:31.013Z,79.60
2018-07-21T18:37:10.483Z,80.20
2018-07-21T18:39:42.253Z,80.80
2018-07-21T18:42:14.189Z,71.80
2018-07-21T18:44:44.983Z,69.70
2018-07-21T18:53:25.476Z,70.40
2018-07-21T18:55:56.924Z,71.30
2018-07-21T18:58:30.831Z,71.70
2018-07-21T19:01:01.996Z,72.20
2018-07-21T19:03:33.821Z,72.40
2018-07-21T19:06:03.948Z,72.50
2018-07-21T19:08:40.796Z,72.70
2018-07-21T19:11:30.204Z,72.80
2018-07-21T19:14:00.141Z,73.20
2018-07-21T19:16:35.907Z,72.50
2018-07-21T19:19:07.647Z,72.70
2018-07-21T19:21:38.439Z,72.90
2018-07-21T19:24:11.101Z,73.20
2018-07-21T19:26:47.423Z,73.80
2018-07-21T19:29:18.979Z,73.90
2018-07-21T19:31:58.639Z,74.10
2018-07-21T19:34:30.507Z,74.80
2018-07-21T19:37:00.431Z,75.20
2018-07-21T19:39:32.446Z,77.80
2018-07-21T19:42:06.051Z,79.30
2018-07-21T19:44:37.877Z,80.30
2018-07-21T19:47:10.824Z,80.30
2018-07-21T19:49:42.139Z,80.50
2018-07-21T19:52:19.978Z,80.50
2018-07-21T19:54:50.914Z,81.80
2018-07-21T19:57:22.136Z,82.00
2018-07-21T19:59:53.855Z,81.70
2018-07-21T20:02:27.142Z,83.60
2018-07-21T20:04:58.215Z,84.50
2018-07-21T20:07:29.515Z,83.70
2018-07-21T20:10:00.597Z,84.10
2018-07-21T20:12:32.754Z,84.30
2018-07-21T20:15:04.001Z,84.50
2018-07-21T20:17:35.591Z,85.30
2018-07-21T20:20:07.462Z,85.30
2018-07-21T20:22:38.339Z,85.80
2018-07-21T20:25:08.504Z,85.30
2018-07-21T20:27:38.909Z,87.20
2018-07-21T20:30:08.436Z,87.00
2018-07-21T20:32:38.549Z,87.00
2018-07-21T20:35:09.794Z,85.90
2018-07-21T20:37:41.191Z,86.10
2018-07-21T20:40:11.037Z,85.90
2018-07-21T20:42:41.240Z,84.40
2018-07-21T20:45:11.352Z,84.70
2018-07-21T20:47:42.373Z,84.70
2018-07-21T20:50:12.802Z,83.40
2018-07-21T20:55:39.970Z,84.40
2018-07-21T20:58:11.781Z,84.50
2018-07-21T21:00:43.941Z,83.90
2018-07-21T21:03:15.082Z,85.10
2018-07-21T21:05:44.748Z,84.90
2018-07-21T21:08:16.067Z,84.90
2018-07-21T21:10:46.105Z,84.80
2018-07-21T21:13:15.925Z,85.10
2018-07-21T21:15:51.021Z,85.30
2018-07-21T21:18:21.099Z,83.90
2018-07-21T21:20:50.896Z,83.20
2018-07-21T21:23:23.139Z,81.70
2018-07-21T21:25:53.079Z,80.60
2018-07-21T21:28:23.077Z,80.30
2018-07-21T21:30:53.878Z,79.90
2018-07-21T21:39:58.861Z,80.30
2018-07-21T21:42:30.775Z,80.30
2018-07-21T21:45:02.791Z,79.40
2018-07-21T21:47:35.543Z,79.30
2018-07-21T21:50:06.531Z,79.40
2018-07-21T21:52:38.941Z,79.70
2018-07-21T21:55:09.788Z,79.60
2018-07-21T21:57:41.464Z,79.70
2018-07-21T22:00:14.979Z,79.90
2018-07-21T22:02:46.296Z,80.50
2018-07-21T22:05:17.697Z,80.40
2018-07-21T22:07:49.476Z,80.30
2018-07-21T22:10:22.219Z,80.30
2018-07-21T22:12:52.272Z,80.30
2018-07-21T22:15:23.780Z,82.20
2018-07-21T22:17:54.067Z,80.80
2018-07-21T22:20:31.963Z,81.00
2018-07-21T22:23:04.310Z,81.80
2018-07-21T22:25:35.504Z,80.70
2018-07-21T22:28:07.573Z,80.30
2018-07-21T22:30:39.451Z,80.70
2018-07-21T22:33:10.513Z,78.90
2018-07-21T22:35:42.047Z,77.70
2018-07-21T22:38:11.918Z,77.00
2018-07-21T22:40:46.173Z,76.30
2018-07-21T22:43:18.688Z,75.80
2018-07-21T22:45:48.061Z,75.70
2018-07-21T22:48:17.627Z,75.70
2018-07-21T22:50:48.474Z,75.30
2018-07-21T22:53:19.489Z,75.60
2018-07-21T22:55:51.179Z,75.20
2018-07-21T22:58:21.584Z,73.90
2018-07-21T23:00:54.605Z,73.80
2018-07-21T23:03:26.929Z,73.80
2018-07-21T23:05:58.973Z,73.80
2018-07-21T23:08:28.951Z,73.30
2018-07-21T23:11:00.841Z,73.40
2018-07-21T23:13:31.771Z,73.20
2018-07-21T23:16:02.608Z,73.40
2018-07-21T23:18:33.654Z,73.30
2018-07-21T23:21:08.150Z,73.50
2018-07-21T23:23:38.744Z,73.70
2018-07-21T23:26:08.016Z,74.20
2018-07-21T23:28:39.318Z,74.40
2018-07-21T23:31:10.648Z,74.80
2018-07-21T23:33:42.442Z,76.00
2018-07-21T23:36:14.406Z,76.00
2018-07-21T23:38:45.020Z,76.60
2018-07-21T23:41:15.728Z,77.20
2018-07-21T23:43:46.690Z,77.60
2018-07-21T23:46:17.168Z,78.30
2018-07-21T23:48:48.384Z,78.80
2018-07-21T23:51:19.463Z,79.10
2018-07-21T23:53:50.499Z,79.50
2018-07-21T23:56:22.508Z,79.90
2018-07-21T23:58:54.086Z,80.30
